Farafra, Egypt
Current Conditions -  °F | °C
As of 5:00 PM on Saturday 20 Dec 2014 (Local Time) from HESG Reporting Station
Clear Clear  
Wind Chill: 68°   Ceiling: Unl
Heat Index: 68°   Visibility: 6mi
Dew Point: 45°   Wind: 17mph
Humidity: 43%   Direction: 310°NW
Pressure: 30.03"   Gusts: NA
Location:  27.05°N, 27.47°E
Report Text: HESG 201500Z 31015KT CAVOK 20/07 Q1017 NOSIG
Loading
Personal Weather Stations






























Interactive Weather Map New forecast layout! Learn more

10-Day Weather Forecast

Advertisements
Track Severe Weather on mobile